sensor_id;sensor_type;location;lat;lon;timestamp;pressure;altitude;pressure_sealevel;temperature;humidity
72721;BME280;60835;50.974;10.322;2022-07-29T00:00:10;99102.06;;;18.15;100.00
72721;BME280;60835;50.974;10.322;2022-07-29T00:02:38;99094.56;;;18.11;100.00
72721;BME280;60835;50.974;10.322;2022-07-29T00:05:07;99079.69;;;18.08;100.00
72721;BME280;60835;50.974;10.322;2022-07-29T00:07:34;99076.00;;;18.09;100.00
72721;BME280;60835;50.974;10.322;2022-07-29T00:10:00;99068.44;;;17.98;100.00
72721;BME280;60835;50.974;10.322;2022-07-29T00:12:27;99067.72;;;18.04;100.00
72721;BME280;60835;50.974;10.322;2022-07-29T00:14:57;99068.44;;;17.98;100.00
72721;BME280;60835;50.974;10.322;2022-07-29T00:17:26;99025.91;;;17.74;100.00
72721;BME280;60835;50.974;10.322;2022-07-29T00:19:52;99062.19;;;17.91;100.00
72721;BME280;60835;50.974;10.322;2022-07-29T00:22:19;99065.22;;;17.88;100.00
72721;BME280;60835;50.974;10.322;2022-07-29T00:24:49;99061.28;;;17.84;100.00
72721;BME280;60835;50.974;10.322;2022-07-29T00:27:17;99031.09;;;17.61;100.00
72721;BME280;60835;50.974;10.322;2022-07-29T00:29:46;99029.81;;;17.57;100.00
72721;BME280;60835;50.974;10.322;2022-07-29T00:32:13;99068.56;;;17.76;100.00
72721;BME280;60835;50.974;10.322;2022-07-29T00:34:39;99030.72;;;17.64;100.00
72721;BME280;60835;50.974;10.322;2022-07-29T00:37:25;99052.50;;;17.76;100.00
72721;BME280;60835;50.974;10.322;2022-07-29T00:39:54;99016.47;;;17.49;100.00
72721;BME280;60835;50.974;10.322;2022-07-29T00:42:21;99036.81;;;17.73;100.00
72721;BME280;60835;50.974;10.322;2022-07-29T00:44:48;99025.19;;;17.66;100.00
72721;BME280;60835;50.974;10.322;2022-07-29T00:47:15;99031.72;;;17.78;100.00
72721;BME280;60835;50.974;10.322;2022-07-29T00:49:43;99006.19;;;17.60;100.00
72721;BME280;60835;50.974;10.322;2022-07-29T00:52:14;99035.81;;;17.74;100.00
72721;BME280;60835;50.974;10.322;2022-07-29T00:54:45;99031.94;;;17.76;100.00
72721;BME280;60835;50.974;10.322;2022-07-29T00:57:12;99025.91;;;17.74;100.00
72721;BME280;60835;50.974;10.322;2022-07-29T00:59:40;99000.91;;;17.67;100.00
72721;BME280;60835;50.974;10.322;2022-07-29T01:02:06;99023.63;;;17.71;100.00
72721;BME280;60835;50.974;10.322;2022-07-29T01:04:37;99012.72;;;17.73;100.00
72721;BME280;60835;50.974;10.322;2022-07-29T01:07:05;99014.28;;;17.67;100.00
72721;BME280;60835;50.974;10.322;2022-07-29T01:09:36;99010.63;;;17.68;100.00
72721;BME280;60835;50.974;10.322;2022-07-29T01:12:21;98995.38;;;17.54;100.00
72721;BME280;60835;50.974;10.322;2022-07-29T01:14:50;99000.06;;;17.67;100.00
72721;BME280;60835;50.974;10.322;2022-07-29T01:17:26;99006.00;;;17.62;100.00
72721;BME280;60835;50.974;10.322;2022-07-29T01:20:20;99001.84;;;17.59;100.00
72721;BME280;60835;50.974;10.322;2022-07-29T01:25:46;98998.69;;;17.56;100.00
72721;BME280;60835;50.974;10.322;2022-07-29T01:29:00;98992.88;;;17.52;100.00
72721;BME280;60835;50.974;10.322;2022-07-29T01:31:54;98992.03;;;17.52;100.00
72721;BME280;60835;50.974;10.322;2022-07-29T01:39:41;98979.97;;;17.41;100.00
72721;BME280;60835;50.974;10.322;2022-07-29T01:42:26;98992.41;;;17.49;100.00
72721;BME280;60835;50.974;10.322;2022-07-29T01:45:32;98994.81;;;17.44;100.00
72721;BME280;60835;50.974;10.322;2022-07-29T01:48:05;98987.06;;;17.49;100.00
72721;BME280;60835;50.974;10.322;2022-07-29T01:50:34;98985.75;;;17.45;100.00
72721;BME280;60835;50.974;10.322;2022-07-29T01:53:05;98965.84;;;17.33;100.00
72721;BME280;60835;50.974;10.322;2022-07-29T01:55:36;98983.47;;;17.42;100.00
72721;BME280;60835;50.974;10.322;2022-07-29T01:58:03;98984.00;;;17.37;100.00
72721;BME280;60835;50.974;10.322;2022-07-29T02:00:33;98983.00;;;17.38;100.00
72721;BME280;60835;50.974;10.322;2022-07-29T02:03:07;98982.00;;;17.39;100.00
72721;BME280;60835;50.974;10.322;2022-07-29T02:05:37;98941.22;;;17.23;100.00
72721;BME280;60835;50.974;10.322;2022-07-29T02:08:05;98974.97;;;17.38;100.00
72721;BME280;60835;50.974;10.322;2022-07-29T02:10:35;98984.09;;;17.44;100.00
72721;BME280;60835;50.974;10.322;2022-07-29T02:13:05;98970.09;;;17.42;100.00
72721;BME280;60835;50.974;10.322;2022-07-29T02:15:34;98950.88;;;17.24;100.00
72721;BME280;60835;50.974;10.322;2022-07-29T02:18:08;98951.47;;;17.34;100.00
72721;BME280;60835;50.974;10.322;2022-07-29T02:20:37;98939.19;;;17.25;100.00
72721;BME280;60835;50.974;10.322;2022-07-29T02:23:06;98957.25;;;17.37;100.00
72721;BME280;60835;50.974;10.322;2022-07-29T02:25:33;98944.81;;;17.30;100.00
72721;BME280;60835;50.974;10.322;2022-07-29T02:28:03;98965.56;;;17.42;100.00
72721;BME280;60835;50.974;10.322;2022-07-29T02:30:40;98960.41;;;17.41;100.00
72721;BME280;60835;50.974;10.322;2022-07-29T02:33:10;98951.47;;;17.34;100.00
72721;BME280;60835;50.974;10.322;2022-07-29T02:35:40;98953.09;;;17.35;100.00
72721;BME280;60835;50.974;10.322;2022-07-29T02:38:14;98942.13;;;17.30;100.00
72721;BME280;60835;50.974;10.322;2022-07-29T02:41:03;98949.44;;;17.36;100.00
72721;BME280;60835;50.974;10.322;2022-07-29T02:43:32;98946.66;;;17.29;100.00
72721;BME280;60835;50.974;10.322;2022-07-29T02:46:02;98939.81;;;17.27;100.00
72721;BME280;60835;50.974;10.322;2022-07-29T02:48:41;98941.50;;;17.28;100.00
72721;BME280;60835;50.974;10.322;2022-07-29T02:51:19;98940.66;;;17.27;100.00
72721;BME280;60835;50.974;10.322;2022-07-29T02:54:08;98903.41;;;17.11;100.00
72721;BME280;60835;50.974;10.322;2022-07-29T02:56:38;98936.88;;;17.22;100.00
72721;BME280;60835;50.974;10.322;2022-07-29T02:59:09;98926.47;;;17.12;100.00
72721;BME280;60835;50.974;10.322;2022-07-29T03:01:39;98934.28;;;17.14;100.00
72721;BME280;60835;50.974;10.322;2022-07-29T03:04:08;98927.31;;;17.13;100.00
72721;BME280;60835;50.974;10.322;2022-07-29T03:06:37;98936.69;;;17.09;100.00
72721;BME280;60835;50.974;10.322;2022-07-29T03:09:06;98929.69;;;17.08;100.00
72721;BME280;60835;50.974;10.322;2022-07-29T03:11:40;98923.13;;;16.95;100.00
72721;BME280;60835;50.974;10.322;2022-07-29T03:14:17;98905.97;;;16.90;100.00
72721;BME280;60835;50.974;10.322;2022-07-29T03:16:46;98911.88;;;16.85;100.00
72721;BME280;60835;50.974;10.322;2022-07-29T03:19:13;98922.84;;;16.90;100.00
72721;BME280;60835;50.974;10.322;2022-07-29T03:21:42;98915.91;;;16.81;100.00
72721;BME280;60835;50.974;10.322;2022-07-29T03:24:09;98917.94;;;16.79;100.00
72721;BME280;60835;50.974;10.322;2022-07-29T03:26:36;98898.38;;;16.64;100.00
72721;BME280;60835;50.974;10.322;2022-07-29T03:29:03;98904.22;;;16.68;100.00
72721;BME280;60835;50.974;10.322;2022-07-29T03:31:29;98921.31;;;16.59;100.00
72721;BME280;60835;50.974;10.322;2022-07-29T03:33:56;98913.09;;;16.60;100.00
72721;BME280;60835;50.974;10.322;2022-07-29T03:36:23;98916.25;;;16.64;100.00
72721;BME280;60835;50.974;10.322;2022-07-29T03:38:51;98911.09;;;16.62;100.00
72721;BME280;60835;50.974;10.322;2022-07-29T03:41:18;98916.16;;;16.57;100.00
72721;BME280;60835;50.974;10.322;2022-07-29T03:43:49;98906.88;;;16.45;100.00
72721;BME280;60835;50.974;10.322;2022-07-29T03:46:20;98916.16;;;16.57;100.00
72721;BME280;60835;50.974;10.322;2022-07-29T03:48:52;98915.13;;;16.58;100.00
72721;BME280;60835;50.974;10.322;2022-07-29T03:51:23;98913.84;;;16.54;100.00
72721;BME280;60835;50.974;10.322;2022-07-29T03:54:01;98908.91;;;16.43;100.00
72721;BME280;60835;50.974;10.322;2022-07-29T03:56:39;98904.81;;;16.32;100.00
72721;BME280;60835;50.974;10.322;2022-07-29T03:59:07;98914.03;;;16.44;100.00
72721;BME280;60835;50.974;10.322;2022-07-29T04:01:35;98913.59;;;16.41;100.00
72721;BME280;60835;50.974;10.322;2022-07-29T04:04:02;98914.00;;;16.30;100.00
72721;BME280;60835;50.974;10.322;2022-07-29T04:06:40;98911.63;;;16.35;100.00
72721;BME280;60835;50.974;10.322;2022-07-29T04:09:07;98912.81;;;16.32;100.00
72721;BME280;60835;50.974;10.322;2022-07-29T04:11:37;98913.13;;;16.37;100.00
72721;BME280;60835;50.974;10.322;2022-07-29T04:14:26;98910.78;;;16.34;100.00
72721;BME280;60835;50.974;10.322;2022-07-29T04:16:52;98928.59;;;16.42;100.00
72721;BME280;60835;50.974;10.322;2022-07-29T04:19:20;98930.75;;;16.47;100.00
72721;BME280;60835;50.974;10.322;2022-07-29T04:21:46;98925.91;;;16.42;100.00
72721;BME280;60835;50.974;10.322;2022-07-29T04:24:12;98932.03;;;16.51;100.00
72721;BME280;60835;50.974;10.322;2022-07-29T04:26:39;98926.50;;;16.52;100.00
72721;BME280;60835;50.974;10.322;2022-07-29T04:29:07;98922.91;;;16.45;100.00
72721;BME280;60835;50.974;10.322;2022-07-29T04:31:34;98934.50;;;16.52;100.00
72721;BME280;60835;50.974;10.322;2022-07-29T04:34:01;98938.53;;;16.56;100.00
72721;BME280;60835;50.974;10.322;2022-07-29T04:36:28;98932.19;;;16.57;100.00
72721;BME280;60835;50.974;10.322;2022-07-29T04:38:55;98924.69;;;16.53;100.00
72721;BME280;60835;50.974;10.322;2022-07-29T04:41:22;98925.22;;;16.48;100.00
72721;BME280;60835;50.974;10.322;2022-07-29T04:43:58;98925.53;;;16.53;100.00
72721;BME280;60835;50.974;10.322;2022-07-29T04:46:27;98927.28;;;16.61;100.00
72721;BME280;60835;50.974;10.322;2022-07-29T04:48:54;98916.38;;;16.70;100.00
72721;BME280;60835;50.974;10.322;2022-07-29T04:51:25;98923.81;;;16.52;100.00
72721;BME280;60835;50.974;10.322;2022-07-29T04:53:54;98922.72;;;16.69;100.00
72721;BME280;60835;50.974;10.322;2022-07-29T04:56:21;98924.97;;;16.58;100.00
72721;BME280;60835;50.974;10.322;2022-07-29T04:58:47;98918.84;;;16.72;100.00
72721;BME280;60835;50.974;10.322;2022-07-29T05:01:14;98919.03;;;16.70;100.00
72721;BME280;60835;50.974;10.322;2022-07-29T05:03:40;98908.25;;;16.64;100.00
72721;BME280;60835;50.974;10.322;2022-07-29T05:06:07;98917.94;;;16.65;100.00
72721;BME280;60835;50.974;10.322;2022-07-29T05:08:33;98915.41;;;16.63;100.00
72721;BME280;60835;50.974;10.322;2022-07-29T05:11:00;98913.41;;;16.65;100.00
72721;BME280;60835;50.974;10.322;2022-07-29T05:13:38;98914.69;;;16.69;100.00
72721;BME280;60835;50.974;10.322;2022-07-29T05:16:12;98923.84;;;16.75;100.00
72721;BME280;60835;50.974;10.322;2022-07-29T05:18:40;98927.56;;;16.88;100.00
72721;BME280;60835;50.974;10.322;2022-07-29T05:21:07;98925.78;;;16.95;100.00
72721;BME280;60835;50.974;10.322;2022-07-29T05:23:34;98927.81;;;16.93;100.00
72721;BME280;60835;50.974;10.322;2022-07-29T05:26:01;98931.69;;;17.05;100.00
72721;BME280;60835;50.974;10.322;2022-07-29T05:28:33;98933.91;;;17.17;100.00
72721;BME280;60835;50.974;10.322;2022-07-29T05:30:59;98918.06;;;17.30;100.00
72721;BME280;60835;50.974;10.322;2022-07-29T05:33:26;98936.69;;;17.67;100.00
72721;BME280;60835;50.974;10.322;2022-07-29T05:36:02;98947.03;;;17.70;100.00
72721;BME280;60835;50.974;10.322;2022-07-29T05:38:30;98937.44;;;17.76;100.00
72721;BME280;60835;50.974;10.322;2022-07-29T05:40:57;98933.00;;;18.04;100.00
72721;BME280;60835;50.974;10.322;2022-07-29T05:43:26;98959.88;;;18.10;100.00
72721;BME280;60835;50.974;10.322;2022-07-29T05:45:53;98948.50;;;18.30;100.00
72721;BME280;60835;50.974;10.322;2022-07-29T05:48:20;98953.84;;;18.65;100.00
72721;BME280;60835;50.974;10.322;2022-07-29T05:50:47;98946.41;;;18.61;100.00
72721;BME280;60835;50.974;10.322;2022-07-29T05:53:13;98958.41;;;18.93;100.00
72721;BME280;60835;50.974;10.322;2022-07-29T05:55:49;98964.09;;;18.83;100.00
72721;BME280;60835;50.974;10.322;2022-07-29T05:58:16;98931.28;;;19.09;100.00
72721;BME280;60835;50.974;10.322;2022-07-29T06:00:44;98945.50;;;19.78;100.00
72721;BME280;60835;50.974;10.322;2022-07-29T06:03:11;98974.22;;;20.31;100.00
72721;BME280;60835;50.974;10.322;2022-07-29T06:05:38;98972.09;;;20.20;100.00
72721;BME280;60835;50.974;10.322;2022-07-29T06:08:05;98975.97;;;20.65;100.00
72721;BME280;60835;50.974;10.322;2022-07-29T06:10:34;98980.31;;;20.86;100.00
72721;BME280;60835;50.974;10.322;2022-07-29T06:13:01;98975.06;;;20.25;100.00
72721;BME280;60835;50.974;10.322;2022-07-29T06:15:27;98978.28;;;20.14;100.00
72721;BME280;60835;50.974;10.322;2022-07-29T06:17:56;98978.69;;;20.18;100.00
72721;BME280;60835;50.974;10.322;2022-07-29T06:20:28;98980.47;;;20.38;100.00
72721;BME280;60835;50.974;10.322;2022-07-29T06:23:01;98969.03;;;19.07;100.00
72721;BME280;60835;50.974;10.322;2022-07-29T06:25:30;98963.81;;;19.27;100.00
72721;BME280;60835;50.974;10.322;2022-07-29T06:27:58;98976.13;;;19.90;100.00
72721;BME280;60835;50.974;10.322;2022-07-29T06:30:25;98955.88;;;19.87;100.00
72721;BME280;60835;50.974;10.322;2022-07-29T06:32:54;98975.28;;;19.83;100.00
72721;BME280;60835;50.974;10.322;2022-07-29T06:35:21;98966.41;;;20.62;100.00
72721;BME280;60835;50.974;10.322;2022-07-29T06:38:07;98975.75;;;19.99;100.00
72721;BME280;60835;50.974;10.322;2022-07-29T06:40:53;98971.09;;;19.74;100.00
72721;BME280;60835;50.974;10.322;2022-07-29T06:43:35;98979.53;;;20.12;100.00
72721;BME280;60835;50.974;10.322;2022-07-29T06:46:17;98970.72;;;19.77;100.00
72721;BME280;60835;50.974;10.322;2022-07-29T06:48:45;98980.34;;;20.12;100.00
72721;BME280;60835;50.974;10.322;2022-07-29T06:51:12;98956.28;;;19.91;100.00
72721;BME280;60835;50.974;10.322;2022-07-29T06:53:39;98980.69;;;19.89;100.00
72721;BME280;60835;50.974;10.322;2022-07-29T06:56:33;98968.97;;;19.63;100.00
72721;BME280;60835;50.974;10.322;2022-07-29T06:59:05;98977.25;;;19.68;100.00
72721;BME280;60835;50.974;10.322;2022-07-29T07:01:33;98968.53;;;19.59;100.00
72721;BME280;60835;50.974;10.322;2022-07-29T07:04:02;98974.50;;;19.55;100.00
72721;BME280;60835;50.974;10.322;2022-07-29T07:06:29;98980.88;;;20.35;100.00
72721;BME280;60835;50.974;10.322;2022-07-29T07:08:55;98990.59;;;20.49;100.00
72721;BME280;60835;50.974;10.322;2022-07-29T07:11:22;98981.97;;;20.80;100.00
72721;BME280;60835;50.974;10.322;2022-07-29T07:13:48;98994.06;;;21.74;100.00
72721;BME280;60835;50.974;10.322;2022-07-29T07:16:15;98984.03;;;20.98;100.00
72721;BME280;60835;50.974;10.322;2022-07-29T07:18:43;98962.72;;;21.22;100.00
72721;BME280;60835;50.974;10.322;2022-07-29T07:21:14;98991.78;;;21.91;100.00
72721;BME280;60835;50.974;10.322;2022-07-29T07:23:45;99007.00;;;22.17;100.00
72721;BME280;60835;50.974;10.322;2022-07-29T07:26:11;98992.91;;;21.57;100.00
72721;BME280;60835;50.974;10.322;2022-07-29T07:28:38;98996.56;;;22.33;100.00
72721;BME280;60835;50.974;10.322;2022-07-29T07:31:04;99009.31;;;22.82;100.00
72721;BME280;60835;50.974;10.322;2022-07-29T07:33:31;99011.66;;;22.41;100.00
72721;BME280;60835;50.974;10.322;2022-07-29T07:35:58;99006.59;;;22.58;100.00
72721;BME280;60835;50.974;10.322;2022-07-29T07:38:24;99002.44;;;22.55;100.00
72721;BME280;60835;50.974;10.322;2022-07-29T07:40:54;99002.19;;;22.94;100.00
72721;BME280;60835;50.974;10.322;2022-07-29T07:43:22;98997.44;;;22.65;100.00
72721;BME280;60835;50.974;10.322;2022-07-29T07:45:53;98996.41;;;22.66;100.00
72721;BME280;60835;50.974;10.322;2022-07-29T07:48:22;99007.47;;;23.08;100.00
72721;BME280;60835;50.974;10.322;2022-07-29T07:50:49;99006.66;;;23.32;99.03
72721;BME280;60835;50.974;10.322;2022-07-29T07:53:16;99013.34;;;23.90;95.90
72721;BME280;60835;50.974;10.322;2022-07-29T07:55:44;99011.09;;;24.23;93.01
72721;BME280;60835;50.974;10.322;2022-07-29T07:58:30;98972.13;;;23.16;97.04
72721;BME280;60835;50.974;10.322;2022-07-29T08:00:57;98995.03;;;23.74;94.71
72721;BME280;60835;50.974;10.322;2022-07-29T08:03:24;98984.34;;;23.43;97.95
72721;BME280;60835;50.974;10.322;2022-07-29T08:05:50;98978.47;;;23.46;96.64
72721;BME280;60835;50.974;10.322;2022-07-29T08:08:18;98987.81;;;23.25;97.16
72721;BME280;60835;50.974;10.322;2022-07-29T08:10:44;98999.28;;;23.21;98.67
72721;BME280;60835;50.974;10.322;2022-07-29T08:13:21;99002.28;;;23.37;98.59
72721;BME280;60835;50.974;10.322;2022-07-29T08:15:48;99002.34;;;23.67;95.63
72721;BME280;60835;50.974;10.322;2022-07-29T08:18:24;99005.72;;;23.20;95.79
72721;BME280;60835;50.974;10.322;2022-07-29T08:20:51;99007.88;;;22.49;98.61
72721;BME280;60835;50.974;10.322;2022-07-29T08:23:17;99002.31;;;22.75;99.42
72721;BME280;60835;50.974;10.322;2022-07-29T08:25:45;98997.63;;;22.26;100.00
72721;BME280;60835;50.974;10.322;2022-07-29T08:28:15;98987.91;;;22.56;100.00
72721;BME280;60835;50.974;10.322;2022-07-29T08:30:41;99002.72;;;22.78;100.00
72721;BME280;60835;50.974;10.322;2022-07-29T08:33:08;99001.31;;;23.00;100.00
72721;BME280;60835;50.974;10.322;2022-07-29T08:35:34;99003.94;;;23.32;98.98
72721;BME280;60835;50.974;10.322;2022-07-29T08:38:02;98994.19;;;23.55;97.45
72721;BME280;60835;50.974;10.322;2022-07-29T08:40:30;98986.22;;;23.18;99.16
72721;BME280;60835;50.974;10.322;2022-07-29T08:42:59;98993.94;;;23.39;97.34
72721;BME280;60835;50.974;10.322;2022-07-29T08:45:41;98994.03;;;23.26;98.39
72721;BME280;60835;50.974;10.322;2022-07-29T08:48:19;98995.63;;;22.84;100.00
72721;BME280;60835;50.974;10.322;2022-07-29T08:50:48;98999.16;;;23.34;98.74
72721;BME280;60835;50.974;10.322;2022-07-29T08:53:17;98993.44;;;23.24;100.00
72721;BME280;60835;50.974;10.322;2022-07-29T08:55:46;98985.09;;;23.50;98.78
72721;BME280;60835;50.974;10.322;2022-07-29T08:58:14;98976.34;;;23.30;97.32
72721;BME280;60835;50.974;10.322;2022-07-29T09:00:47;98988.75;;;23.13;97.72
72721;BME280;60835;50.974;10.322;2022-07-29T09:03:23;98978.13;;;23.18;98.37
72721;BME280;60835;50.974;10.322;2022-07-29T09:05:51;98966.19;;;23.25;96.76
72721;BME280;60835;50.974;10.322;2022-07-29T09:08:18;98977.53;;;23.58;97.32
72721;BME280;60835;50.974;10.322;2022-07-29T09:10:46;98972.13;;;23.16;96.84
72721;BME280;60835;50.974;10.322;2022-07-29T09:13:14;98965.84;;;23.22;97.59
72721;BME280;60835;50.974;10.322;2022-07-29T09:15:40;98973.41;;;23.56;96.65
72721;BME280;60835;50.974;10.322;2022-07-29T09:18:07;98973.03;;;23.28;97.99
72721;BME280;60835;50.974;10.322;2022-07-29T09:20:51;98969.19;;;23.17;100.00
72721;BME280;60835;50.974;10.322;2022-07-29T09:23:37;98970.56;;;23.01;100.00
72721;BME280;60835;50.974;10.322;2022-07-29T09:28:33;98975.41;;;23.18;99.56
72721;BME280;60835;50.974;10.322;2022-07-29T09:30:59;98976.75;;;22.53;100.00
72721;BME280;60835;50.974;10.322;2022-07-29T09:33:33;98953.00;;;22.61;100.00
72721;BME280;60835;50.974;10.322;2022-07-29T09:36:08;98976.63;;;22.72;100.00
72721;BME280;60835;50.974;10.322;2022-07-29T09:38:36;98970.53;;;23.08;100.00
72721;BME280;60835;50.974;10.322;2022-07-29T09:41:05;98977.44;;;23.22;99.50
72721;BME280;60835;50.974;10.322;2022-07-29T09:43:34;98965.09;;;23.33;98.40
72721;BME280;60835;50.974;10.322;2022-07-29T09:46:11;98968.91;;;23.25;98.88
72721;BME280;60835;50.974;10.322;2022-07-29T09:48:41;98969.34;;;23.47;98.08
72721;BME280;60835;50.974;10.322;2022-07-29T09:51:18;98934.25;;;23.22;98.30
72721;BME280;60835;50.974;10.322;2022-07-29T09:53:52;98948.28;;;23.31;99.19
72721;BME280;60835;50.974;10.322;2022-07-29T09:56:19;98948.28;;;23.31;98.64
72721;BME280;60835;50.974;10.322;2022-07-29T09:58:47;98949.41;;;23.48;98.81
72721;BME280;60835;50.974;10.322;2022-07-29T10:01:13;98949.75;;;23.51;98.87
72721;BME280;60835;50.974;10.322;2022-07-29T10:03:51;98911.22;;;23.44;97.24
72721;BME280;60835;50.974;10.322;2022-07-29T10:06:18;98933.88;;;23.19;98.72
72721;BME280;60835;50.974;10.322;2022-07-29T10:08:46;98957.66;;;23.53;98.68
72721;BME280;60835;50.974;10.322;2022-07-29T10:11:14;98944.25;;;23.94;96.86
72721;BME280;60835;50.974;10.322;2022-07-29T10:13:43;98951.69;;;23.99;96.65
72721;BME280;60835;50.974;10.322;2022-07-29T10:16:11;98944.03;;;24.14;94.65
72721;BME280;60835;50.974;10.322;2022-07-29T10:18:40;98947.97;;;24.30;94.31
72721;BME280;60835;50.974;10.322;2022-07-29T10:21:07;98932.28;;;24.50;91.65
72721;BME280;60835;50.974;10.322;2022-07-29T10:23:35;98942.47;;;24.06;93.43
72721;BME280;60835;50.974;10.322;2022-07-29T10:26:12;98941.81;;;24.22;93.86
72721;BME280;60835;50.974;10.322;2022-07-29T10:28:40;98926.56;;;24.28;93.45
72721;BME280;60835;50.974;10.322;2022-07-29T10:31:13;98935.84;;;24.02;94.82
72721;BME280;60835;50.974;10.322;2022-07-29T10:33:59;98908.44;;;24.58;92.04
72721;BME280;60835;50.974;10.322;2022-07-29T10:36:49;98936.13;;;23.83;94.00
72721;BME280;60835;50.974;10.322;2022-07-29T10:44:45;98920.19;;;24.75;90.83
72721;BME280;60835;50.974;10.322;2022-07-29T10:47:28;98932.03;;;24.93;90.17
72721;BME280;60835;50.974;10.322;2022-07-29T10:50:03;98918.19;;;24.71;89.36
72721;BME280;60835;50.974;10.322;2022-07-29T10:55:36;98913.81;;;25.23;87.82
72721;BME280;60835;50.974;10.322;2022-07-29T10:58:20;98902.72;;;24.78;88.55
72721;BME280;60835;50.974;10.322;2022-07-29T11:00:52;98919.31;;;24.81;89.84
72721;BME280;60835;50.974;10.322;2022-07-29T11:03:43;98897.66;;;25.05;88.66
72721;BME280;60835;50.974;10.322;2022-07-29T11:06:19;98910.50;;;25.09;87.90
72721;BME280;60835;50.974;10.322;2022-07-29T11:09:16;98909.44;;;25.10;89.58
72721;BME280;60835;50.974;10.322;2022-07-29T11:11:46;98903.66;;;25.18;88.57
72721;BME280;60835;50.974;10.322;2022-07-29T11:17:05;98906.25;;;28.09;72.36
72721;BME280;60835;50.974;10.322;2022-07-29T11:19:34;98897.78;;;27.41;70.21
72721;BME280;60835;50.974;10.322;2022-07-29T11:22:01;98918.38;;;27.80;68.15
72721;BME280;60835;50.974;10.322;2022-07-29T11:24:29;98908.78;;;27.94;66.75
72721;BME280;60835;50.974;10.322;2022-07-29T11:27:10;98908.50;;;28.44;65.23
72721;BME280;60835;50.974;10.322;2022-07-29T11:29:40;98900.06;;;28.14;64.38
72721;BME280;60835;50.974;10.322;2022-07-29T11:32:15;98909.00;;;27.88;66.01
72721;BME280;60835;50.974;10.322;2022-07-29T11:35:11;98911.50;;;28.43;64.47
72721;BME280;60835;50.974;10.322;2022-07-29T11:37:45;98892.88;;;28.61;58.46
72721;BME280;60835;50.974;10.322;2022-07-29T11:40:21;98879.91;;;29.10;57.80
72721;BME280;60835;50.974;10.322;2022-07-29T11:42:48;98887.25;;;29.46;55.73
72721;BME280;60835;50.974;10.322;2022-07-29T11:45:22;98883.53;;;28.79;57.30
72721;BME280;60835;50.974;10.322;2022-07-29T11:48:16;98887.41;;;28.56;58.03
72721;BME280;60835;50.974;10.322;2022-07-29T11:50:58;98876.66;;;28.71;57.18
72721;BME280;60835;50.974;10.322;2022-07-29T11:53:28;98879.63;;;29.02;55.12
72721;BME280;60835;50.974;10.322;2022-07-29T11:56:00;98887.28;;;27.93;61.00
72721;BME280;60835;50.974;10.322;2022-07-29T11:58:28;98894.94;;;27.96;58.89
72721;BME280;60835;50.974;10.322;2022-07-29T12:00:55;98886.03;;;28.54;57.19
72721;BME280;60835;50.974;10.322;2022-07-29T12:03:25;98846.06;;;27.79;58.94
72721;BME280;60835;50.974;10.322;2022-07-29T12:06:11;98877.44;;;28.67;55.13
72721;BME280;60835;50.974;10.322;2022-07-29T12:08:41;98876.38;;;29.46;54.59
72721;BME280;60835;50.974;10.322;2022-07-29T12:11:17;98880.16;;;29.04;53.59
72721;BME280;60835;50.974;10.322;2022-07-29T12:13:52;98871.34;;;29.85;53.79
72721;BME280;60835;50.974;10.322;2022-07-29T12:16:23;98865.16;;;31.26;47.62
72721;BME280;60835;50.974;10.322;2022-07-29T12:18:59;98857.03;;;30.70;47.31
72721;BME280;60835;50.974;10.322;2022-07-29T12:21:44;98872.56;;;30.40;47.97
72721;BME280;60835;50.974;10.322;2022-07-29T12:24:22;98867.13;;;32.33;44.24
72721;BME280;60835;50.974;10.322;2022-07-29T12:26:57;98854.03;;;30.47;46.95
72721;BME280;60835;50.974;10.322;2022-07-29T12:29:24;98851.75;;;31.19;45.12
72721;BME280;60835;50.974;10.322;2022-07-29T12:32:01;98843.75;;;32.07;43.28
72721;BME280;60835;50.974;10.322;2022-07-29T12:34:29;98841.25;;;32.55;41.69
72721;BME280;60835;50.974;10.322;2022-07-29T12:36:56;98854.50;;;30.24;44.78
72721;BME280;60835;50.974;10.322;2022-07-29T12:39:22;98853.44;;;31.89;42.38
72721;BME280;60835;50.974;10.322;2022-07-29T12:41:53;98849.09;;;32.95;41.17
72721;BME280;60835;50.974;10.322;2022-07-29T12:44:49;98850.00;;;31.64;41.71
72721;BME280;60835;50.974;10.322;2022-07-29T12:47:18;98838.25;;;31.63;41.81
72721;BME280;60835;50.974;10.322;2022-07-29T12:49:45;98838.75;;;31.70;42.98
72721;BME280;60835;50.974;10.322;2022-07-29T12:52:32;98838.94;;;31.20;41.96
72721;BME280;60835;50.974;10.322;2022-07-29T12:54:59;98819.97;;;32.41;40.98
72721;BME280;60835;50.974;10.322;2022-07-29T12:57:29;98819.22;;;33.69;39.22
72721;BME280;60835;50.974;10.322;2022-07-29T13:00:06;98817.81;;;34.28;37.38
72721;BME280;60835;50.974;10.322;2022-07-29T13:02:38;98805.06;;;32.58;39.41
72721;BME280;60835;50.974;10.322;2022-07-29T13:05:05;98797.47;;;33.49;39.13
72721;BME280;60835;50.974;10.322;2022-07-29T13:07:33;98803.59;;;33.89;38.30
72721;BME280;60835;50.974;10.322;2022-07-29T13:10:22;98810.25;;;34.71;36.39
72721;BME280;60835;50.974;10.322;2022-07-29T13:13:10;98767.97;;;32.94;37.49
72721;BME280;60835;50.974;10.322;2022-07-29T13:15:38;98810.78;;;31.14;41.39
72721;BME280;60835;50.974;10.322;2022-07-29T13:18:25;98816.50;;;32.31;40.84
72721;BME280;60835;50.974;10.322;2022-07-29T13:20:52;98807.94;;;31.55;40.71
72721;BME280;60835;50.974;10.322;2022-07-29T13:23:22;98808.16;;;30.54;42.54
72721;BME280;60835;50.974;10.322;2022-07-29T13:25:48;98800.63;;;31.25;42.96